createdAt,value
2017-08-31T00:00:08.900Z,68.32
2017-08-31T00:02:35.090Z,68.32
2017-08-31T00:05:01.137Z,68.32
2017-08-31T00:07:27.188Z,68.32
2017-08-31T00:09:53.222Z,68.31
2017-08-31T00:12:19.362Z,68.31
2017-08-31T00:14:45.379Z,68.31
2017-08-31T00:17:11.422Z,68.31
2017-08-31T00:19:37.452Z,68.31
2017-08-31T00:22:03.519Z,68.30
2017-08-31T00:24:29.533Z,68.31
2017-08-31T00:26:55.565Z,68.30
2017-08-31T00:29:21.622Z,68.31
2017-08-31T00:31:48.357Z,68.31
2017-08-31T00:34:15.173Z,68.31
2017-08-31T00:36:41.260Z,68.31
2017-08-31T00:39:07.269Z,68.31
2017-08-31T00:41:33.319Z,68.31
2017-08-31T00:43:59.523Z,68.30
2017-08-31T00:46:25.607Z,68.32
2017-08-31T00:48:51.646Z,68.32
2017-08-31T00:51:17.687Z,68.31
2017-08-31T00:53:43.797Z,68.29
2017-08-31T00:56:10.007Z,68.30
2017-08-31T00:58:36.047Z,68.29
2017-08-31T01:01:02.100Z,68.29
2017-08-31T01:03:28.320Z,68.30
2017-08-31T01:05:54.364Z,68.31
2017-08-31T01:08:21.042Z,68.29
2017-08-31T01:10:47.213Z,68.29
2017-08-31T01:13:13.225Z,68.29
2017-08-31T01:15:39.356Z,68.30
2017-08-31T01:18:05.516Z,68.30
2017-08-31T01:20:31.689Z,68.32
2017-08-31T01:22:58.149Z,68.30
2017-08-31T01:25:24.263Z,68.35
2017-08-31T01:27:50.398Z,68.35
2017-08-31T01:30:16.559Z,68.34
2017-08-31T01:32:42.677Z,68.35
2017-08-31T01:35:08.856Z,68.34
2017-08-31T01:37:34.969Z,68.36
2017-08-31T01:40:01.236Z,68.35
2017-08-31T01:42:27.394Z,68.36
2017-08-31T01:44:53.549Z,68.35
2017-08-31T01:47:32.057Z,68.37
2017-08-31T01:49:58.181Z,68.38
2017-08-31T01:52:24.313Z,68.36
2017-08-31T01:54:50.429Z,68.36
2017-08-31T01:57:16.547Z,68.34
2017-08-31T01:59:42.677Z,68.33
2017-08-31T02:02:08.872Z,68.36
2017-08-31T02:04:35.143Z,68.35
2017-08-31T02:07:01.261Z,68.34
2017-08-31T02:09:27.397Z,68.34
2017-08-31T02:11:53.506Z,68.32
2017-08-31T02:14:19.591Z,68.33
2017-08-31T02:16:45.718Z,68.32
2017-08-31T02:19:11.839Z,68.30
2017-08-31T02:21:37.983Z,68.30
2017-08-31T02:24:04.142Z,68.29
2017-08-31T02:26:30.254Z,68.30
2017-08-31T02:28:56.350Z,68.31
2017-08-31T02:31:22.604Z,68.31
2017-08-31T02:33:48.842Z,68.30
2017-08-31T02:36:14.990Z,68.32
2017-08-31T02:38:41.119Z,68.32
2017-08-31T02:41:07.266Z,68.32
2017-08-31T02:43:33.384Z,68.30
2017-08-31T02:45:59.481Z,68.30
2017-08-31T02:48:25.569Z,68.31
2017-08-31T02:50:51.810Z,68.31
2017-08-31T02:53:17.956Z,68.32
2017-08-31T02:55:44.069Z,68.34
2017-08-31T02:58:10.204Z,68.31
2017-08-31T03:00:36.318Z,68.32
2017-08-31T03:03:02.445Z,68.30
2017-08-31T03:05:28.660Z,68.31
2017-08-31T03:07:55.369Z,68.33
2017-08-31T03:10:21.492Z,68.33
2017-08-31T03:12:47.611Z,68.35
2017-08-31T03:15:13.796Z,68.34
2017-08-31T03:17:39.908Z,68.34
2017-08-31T03:20:06.054Z,68.32
2017-08-31T03:22:32.126Z,68.31
2017-08-31T03:24:58.380Z,68.32
2017-08-31T03:27:24.522Z,68.32
2017-08-31T03:29:50.607Z,68.31
2017-08-31T03:32:16.924Z,68.31
2017-08-31T03:34:43.072Z,68.31
2017-08-31T03:37:09.254Z,68.31
2017-08-31T03:39:35.492Z,68.30
2017-08-31T03:42:01.623Z,68.30
2017-08-31T03:44:27.733Z,68.30
2017-08-31T03:46:53.822Z,68.31
2017-08-31T03:49:19.964Z,68.30
2017-08-31T03:51:46.131Z,68.29
2017-08-31T03:54:12.155Z,68.27
2017-08-31T03:56:38.180Z,68.27
2017-08-31T03:59:04.525Z,68.27
2017-08-31T04:01:30.531Z,68.27
2017-08-31T04:03:56.581Z,68.28
2017-08-31T04:06:22.751Z,68.25
2017-08-31T04:08:48.795Z,68.25
2017-08-31T04:11:14.836Z,68.25
2017-08-31T04:13:40.944Z,68.25
2017-08-31T04:16:07.100Z,68.25
2017-08-31T04:18:33.180Z,68.26
2017-08-31T04:20:59.228Z,68.25
2017-08-31T04:23:25.262Z,68.25
2017-08-31T04:25:51.366Z,68.50
2017-08-31T04:28:18.670Z,68.51
2017-08-31T04:30:44.717Z,68.48
2017-08-31T04:33:10.738Z,68.46
2017-08-31T04:35:36.792Z,68.91
2017-08-31T04:38:02.893Z,69.50
2017-08-31T04:40:29.017Z,69.54
2017-08-31T04:42:55.073Z,69.49
2017-08-31T04:45:21.681Z,69.40
2017-08-31T04:47:47.831Z,69.46
2017-08-31T04:50:13.904Z,69.14
2017-08-31T04:52:39.930Z,69.03
2017-08-31T04:55:05.995Z,69.03
2017-08-31T04:57:32.271Z,69.16
2017-08-31T04:59:58.491Z,68.90
2017-08-31T05:02:24.625Z,68.85
2017-08-31T05:04:50.721Z,68.91
2017-08-31T05:07:16.773Z,68.77
2017-08-31T05:09:42.880Z,68.93
2017-08-31T05:12:09.053Z,68.88
2017-08-31T05:14:35.190Z,68.96
2017-08-31T05:17:01.240Z,68.68
2017-08-31T05:19:27.359Z,68.60
2017-08-31T05:21:53.434Z,68.85
2017-08-31T05:24:19.498Z,68.86
2017-08-31T05:26:45.601Z,68.91
2017-08-31T05:29:11.697Z,69.35
2017-08-31T05:31:37.762Z,69.33
2017-08-31T05:34:03.864Z,69.43
2017-08-31T05:36:29.929Z,69.40
2017-08-31T05:38:56.062Z,70.34
2017-08-31T05:41:22.150Z,69.96
2017-08-31T05:43:48.196Z,70.43
2017-08-31T05:46:14.308Z,70.72
2017-08-31T05:48:40.400Z,70.76
2017-08-31T05:51:06.547Z,70.19
2017-08-31T05:53:32.598Z,70.27
2017-08-31T05:55:58.687Z,70.19
2017-08-31T05:58:24.768Z,71.17
2017-08-31T06:00:51.015Z,70.46
2017-08-31T06:03:17.096Z,70.10
2017-08-31T06:05:43.141Z,70.09
2017-08-31T06:08:09.330Z,70.41
2017-08-31T06:10:35.410Z,70.59
2017-08-31T06:13:01.544Z,70.80
2017-08-31T06:15:27.632Z,70.70
2017-08-31T06:17:53.666Z,70.79
2017-08-31T06:20:19.804Z,70.79
2017-08-31T06:22:45.841Z,70.91
2017-08-31T06:25:11.953Z,70.79
2017-08-31T06:27:37.996Z,70.75
2017-08-31T06:30:04.050Z,70.86
2017-08-31T06:32:30.108Z,70.80
2017-08-31T06:34:56.148Z,70.75
2017-08-31T06:37:22.212Z,70.77
2017-08-31T06:39:48.247Z,70.70
2017-08-31T06:42:14.420Z,70.67
2017-08-31T06:44:40.556Z,70.65
2017-08-31T06:47:06.690Z,70.62
2017-08-31T06:49:32.838Z,70.66
2017-08-31T06:51:58.857Z,70.70
2017-08-31T06:54:24.921Z,70.61
2017-08-31T06:56:51.093Z,70.52
2017-08-31T06:59:17.129Z,70.52
2017-08-31T07:01:43.186Z,70.44
2017-08-31T07:04:09.217Z,70.45
2017-08-31T07:06:35.252Z,70.44
2017-08-31T07:09:01.279Z,70.38
2017-08-31T07:11:27.334Z,70.30
2017-08-31T07:13:53.407Z,70.29
2017-08-31T07:16:20.299Z,70.27
2017-08-31T07:18:46.375Z,70.25
2017-08-31T07:21:12.402Z,70.20
2017-08-31T07:23:38.445Z,70.17
2017-08-31T07:26:04.524Z,70.19
2017-08-31T07:28:31.211Z,70.15
2017-08-31T07:30:57.260Z,70.16
2017-08-31T07:33:23.498Z,70.08
2017-08-31T07:35:49.639Z,70.07
2017-08-31T07:38:15.688Z,70.06
2017-08-31T07:40:41.707Z,69.99
2017-08-31T07:43:07.802Z,70.00
2017-08-31T07:45:33.880Z,69.90
2017-08-31T07:47:59.913Z,69.88
2017-08-31T07:50:26.781Z,69.89
2017-08-31T07:52:52.839Z,69.87
2017-08-31T07:55:19.146Z,69.82
2017-08-31T07:57:45.194Z,69.75
2017-08-31T08:00:11.233Z,69.71
2017-08-31T08:02:37.491Z,69.68
2017-08-31T08:05:03.793Z,69.64
2017-08-31T08:07:29.948Z,69.64
2017-08-31T08:09:56.119Z,69.61
2017-08-31T08:12:22.166Z,69.56
2017-08-31T08:14:48.193Z,69.53
2017-08-31T08:17:14.204Z,69.51
2017-08-31T08:19:40.276Z,69.48
2017-08-31T08:22:06.314Z,69.45
2017-08-31T08:24:32.336Z,69.37
2017-08-31T08:26:58.384Z,69.33
2017-08-31T08:29:24.472Z,69.31
2017-08-31T08:31:50.690Z,69.25
2017-08-31T08:34:16.746Z,69.23
2017-08-31T08:36:42.794Z,69.21
2017-08-31T08:39:08.816Z,69.21
2017-08-31T08:41:35.016Z,69.19
2017-08-31T08:44:01.251Z,69.15
2017-08-31T08:46:27.437Z,69.17
2017-08-31T08:48:53.520Z,69.16
2017-08-31T08:51:19.641Z,69.11
2017-08-31T08:53:45.676Z,69.06
2017-08-31T08:56:11.710Z,69.01
2017-08-31T08:58:37.826Z,69.00
2017-08-31T09:01:04.036Z,69.00
2017-08-31T09:03:30.071Z,68.98
2017-08-31T09:05:56.105Z,68.93
2017-08-31T09:08:22.250Z,68.90
2017-08-31T09:10:48.287Z,68.88
2017-08-31T09:13:14.316Z,68.88
2017-08-31T09:15:40.365Z,68.88
2017-08-31T09:18:06.516Z,68.83
2017-08-31T09:20:32.688Z,68.80
2017-08-31T09:22:58.771Z,68.81
2017-08-31T09:25:24.807Z,68.77
2017-08-31T09:27:50.920Z,68.73
2017-08-31T09:30:17.137Z,68.71
2017-08-31T09:32:43.314Z,68.71
2017-08-31T09:35:09.530Z,68.69
2017-08-31T09:37:35.564Z,68.66
2017-08-31T09:40:01.613Z,68.66
2017-08-31T09:42:27.654Z,68.65
2017-08-31T09:44:53.855Z,68.63
2017-08-31T09:47:19.872Z,68.62
2017-08-31T09:49:46.062Z,68.60
2017-08-31T09:52:12.062Z,68.59
2017-08-31T09:54:38.105Z,68.45
2017-08-31T09:57:04.317Z,68.70
2017-08-31T09:59:30.355Z,68.92
2017-08-31T10:01:56.521Z,69.02
2017-08-31T10:04:22.961Z,68.92
2017-08-31T10:06:48.994Z,69.11
2017-08-31T10:09:15.041Z,68.92
2017-08-31T10:11:41.172Z,68.92
2017-08-31T10:14:07.822Z,68.80
2017-08-31T10:16:33.924Z,68.79
2017-08-31T10:19:00.095Z,68.73
2017-08-31T10:21:26.749Z,69.21
2017-08-31T10:23:52.778Z,69.08
2017-08-31T10:26:19.846Z,69.82
2017-08-31T10:28:45.987Z,69.97
2017-08-31T10:31:12.167Z,70.02
2017-08-31T10:33:38.269Z,70.00
2017-08-31T10:36:04.364Z,69.70
2017-08-31T10:38:30.841Z,69.57
2017-08-31T10:40:56.965Z,69.37
2017-08-31T10:43:23.193Z,69.16
2017-08-31T10:45:49.337Z,68.95
2017-08-31T10:48:15.430Z,68.85
2017-08-31T10:50:42.000Z,68.71
2017-08-31T10:53:08.284Z,68.42
2017-08-31T10:55:34.492Z,68.25
2017-08-31T10:58:00.714Z,68.22
2017-08-31T11:00:26.819Z,67.87
2017-08-31T11:02:52.998Z,67.92
2017-08-31T11:05:19.121Z,68.07
2017-08-31T11:07:45.268Z,68.17
2017-08-31T11:10:11.340Z,68.15
2017-08-31T11:12:37.582Z,68.08
2017-08-31T11:15:03.745Z,68.08
2017-08-31T11:17:29.867Z,67.79
2017-08-31T11:19:55.953Z,67.77
2017-08-31T11:22:22.061Z,67.48
2017-08-31T11:24:48.279Z,67.54
2017-08-31T11:27:14.495Z,67.59
2017-08-31T11:29:40.741Z,67.17
2017-08-31T11:32:06.949Z,66.60
2017-08-31T11:34:33.131Z,66.53
2017-08-31T11:36:59.314Z,66.83
2017-08-31T11:39:25.232Z,66.21
2017-08-31T11:41:51.448Z,66.35
2017-08-31T11:44:17.519Z,66.04
2017-08-31T11:46:43.628Z,66.48
2017-08-31T11:49:09.686Z,66.57
2017-08-31T11:51:35.714Z,65.89
2017-08-31T11:54:01.782Z,65.79
2017-08-31T11:56:28.244Z,65.54
2017-08-31T11:58:54.492Z,65.08
2017-08-31T12:01:20.557Z,64.63
2017-08-31T12:03:46.614Z,64.48
2017-08-31T12:06:12.632Z,64.45
2017-08-31T12:08:38.673Z,64.39
2017-08-31T12:11:04.799Z,64.56
2017-08-31T12:13:30.956Z,64.17
2017-08-31T12:15:57.035Z,64.27
2017-08-31T12:18:23.101Z,64.32
2017-08-31T12:20:49.132Z,64.21
2017-08-31T12:23:15.250Z,64.32
2017-08-31T12:25:41.337Z,64.31
2017-08-31T12:28:07.472Z,64.25
2017-08-31T12:30:33.506Z,64.59
2017-08-31T12:32:59.571Z,64.34
2017-08-31T12:35:25.744Z,64.11
2017-08-31T12:37:51.864Z,64.60
2017-08-31T12:40:17.894Z,64.40
2017-08-31T12:42:43.926Z,64.49
2017-08-31T12:45:10.046Z,64.77
2017-08-31T12:47:36.080Z,65.04
2017-08-31T12:50:02.174Z,65.12
2017-08-31T12:52:28.240Z,65.19
2017-08-31T12:54:54.437Z,65.29
2017-08-31T12:57:20.537Z,65.34
2017-08-31T12:59:46.644Z,65.39
2017-08-31T13:02:12.730Z,65.47
2017-08-31T13:04:38.794Z,65.49
2017-08-31T13:07:04.836Z,65.54
2017-08-31T13:09:30.894Z,65.60
2017-08-31T13:11:57.901Z,65.60
2017-08-31T13:14:23.958Z,65.66
2017-08-31T13:16:50.039Z,65.69
2017-08-31T13:19:16.238Z,65.68
2017-08-31T13:21:42.325Z,65.67
2017-08-31T13:24:08.475Z,65.70
2017-08-31T13:26:34.499Z,65.61
2017-08-31T13:29:01.323Z,65.70
2017-08-31T13:31:27.601Z,65.75
2017-08-31T13:33:53.706Z,65.77
2017-08-31T13:36:19.966Z,65.78
2017-08-31T13:38:47.437Z,65.78
2017-08-31T13:41:13.489Z,65.78
2017-08-31T13:43:39.740Z,65.81
2017-08-31T13:46:05.910Z,65.88
2017-08-31T13:48:31.928Z,65.86
2017-08-31T13:50:58.209Z,65.86
2017-08-31T13:53:24.302Z,65.85
2017-08-31T13:55:50.975Z,65.85
2017-08-31T13:58:17.148Z,65.90
2017-08-31T14:00:43.268Z,65.91
2017-08-31T14:03:10.472Z,65.87
2017-08-31T14:05:36.537Z,65.91
2017-08-31T14:08:03.123Z,66.04
2017-08-31T14:10:29.579Z,66.10
2017-08-31T14:12:55.660Z,66.10
2017-08-31T14:15:21.751Z,66.14
2017-08-31T14:17:48.021Z,66.22
2017-08-31T14:20:14.053Z,66.09
2017-08-31T14:22:40.058Z,66.19
2017-08-31T14:25:06.739Z,66.09
2017-08-31T14:27:32.950Z,65.99
2017-08-31T14:29:59.014Z,66.03
2017-08-31T14:32:25.194Z,66.09
2017-08-31T14:34:51.387Z,66.09
2017-08-31T14:37:17.488Z,65.97
2017-08-31T14:39:43.563Z,66.06
2017-08-31T14:42:09.609Z,66.00
2017-08-31T14:44:35.648Z,65.98
2017-08-31T14:47:01.934Z,65.94
2017-08-31T14:49:28.048Z,66.02
2017-08-31T14:51:55.133Z,66.00
2017-08-31T14:54:21.208Z,65.87
2017-08-31T14:56:47.340Z,65.99
2017-08-31T14:59:13.508Z,66.02
2017-08-31T15:01:39.580Z,66.01
2017-08-31T15:04:05.667Z,66.01
2017-08-31T15:06:35.152Z,66.01
2017-08-31T15:09:01.378Z,65.99
2017-08-31T15:11:27.657Z,66.01
2017-08-31T15:13:53.727Z,66.00
2017-08-31T15:16:20.051Z,65.98
2017-08-31T15:18:48.570Z,65.91
2017-08-31T15:21:17.655Z,65.80
2017-08-31T15:23:43.864Z,65.80
2017-08-31T15:26:10.052Z,65.81
2017-08-31T15:28:37.984Z,66.37
2017-08-31T15:31:06.364Z,66.44
2017-08-31T15:33:34.835Z,66.42
2017-08-31T15:36:07.493Z,66.44
2017-08-31T15:38:35.693Z,66.42
2017-08-31T15:41:07.977Z,66.37
2017-08-31T15:43:36.427Z,66.39
2017-08-31T15:46:08.999Z,66.35
2017-08-31T15:48:35.120Z,66.33
2017-08-31T15:51:03.345Z,66.36
2017-08-31T15:53:29.410Z,66.32
2017-08-31T15:55:55.704Z,66.26
2017-08-31T15:58:21.805Z,66.25
2017-08-31T16:00:48.009Z,66.31
2017-08-31T16:03:14.402Z,66.21
2017-08-31T16:05:40.525Z,66.17
2017-08-31T16:08:06.717Z,66.20
2017-08-31T16:10:32.805Z,66.13
2017-08-31T16:13:00.084Z,66.11
2017-08-31T16:15:26.104Z,66.11
2017-08-31T16:17:52.140Z,66.06
2017-08-31T16:20:18.238Z,66.02
2017-08-31T16:22:44.300Z,66.06
2017-08-31T16:25:10.511Z,66.09
2017-08-31T16:27:36.662Z,66.03
2017-08-31T16:30:02.736Z,66.15
2017-08-31T16:32:28.826Z,66.26
2017-08-31T16:34:54.928Z,66.28
2017-08-31T16:37:21.124Z,66.28
2017-08-31T16:39:47.203Z,66.30
2017-08-31T16:42:13.308Z,66.29
2017-08-31T16:44:39.364Z,66.26
2017-08-31T16:47:05.646Z,66.25
2017-08-31T16:49:31.925Z,66.18
2017-08-31T16:51:57.970Z,66.01
2017-08-31T16:54:24.164Z,66.02
2017-08-31T16:56:50.186Z,66.00
2017-08-31T16:59:16.339Z,66.02
2017-08-31T17:01:42.795Z,66.00
2017-08-31T17:04:08.903Z,65.96
2017-08-31T17:06:35.142Z,65.92
2017-08-31T17:09:01.244Z,65.88
2017-08-31T17:11:29.354Z,65.84
2017-08-31T17:13:55.885Z,65.78
2017-08-31T17:16:22.045Z,65.64
2017-08-31T17:18:48.221Z,65.59
2017-08-31T17:21:15.227Z,65.64
2017-08-31T17:23:42.100Z,65.75
2017-08-31T17:26:08.172Z,65.79
2017-08-31T17:28:34.263Z,65.81
2017-08-31T17:31:00.408Z,65.81
2017-08-31T17:33:26.472Z,65.86
2017-08-31T17:35:52.537Z,65.85
2017-08-31T17:38:18.646Z,65.80
2017-08-31T17:40:45.071Z,65.89
2017-08-31T17:43:11.109Z,66.10
2017-08-31T17:45:37.173Z,65.95
2017-08-31T17:48:03.239Z,66.19
2017-08-31T17:50:29.332Z,66.15
2017-08-31T17:52:56.085Z,66.11
2017-08-31T17:55:22.141Z,66.15
2017-08-31T17:57:51.342Z,66.16
2017-08-31T18:00:17.568Z,66.24
2017-08-31T18:02:43.684Z,66.23
2017-08-31T18:05:09.973Z,66.17
2017-08-31T18:07:36.121Z,66.21
2017-08-31T18:10:02.207Z,66.07
2017-08-31T18:12:28.340Z,66.00
2017-08-31T18:14:54.385Z,66.01
2017-08-31T18:17:20.451Z,65.96
2017-08-31T18:19:46.469Z,65.98
2017-08-31T18:22:12.886Z,65.92
2017-08-31T18:24:38.999Z,65.94
2017-08-31T18:27:05.077Z,65.99
2017-08-31T18:29:31.192Z,66.00
2017-08-31T18:31:57.781Z,65.98
2017-08-31T18:34:23.936Z,65.98
2017-08-31T18:36:49.987Z,65.98
2017-08-31T18:39:16.110Z,65.97
2017-08-31T18:41:42.254Z,65.88
2017-08-31T18:44:08.306Z,65.90
2017-08-31T18:46:34.356Z,65.90
2017-08-31T18:49:00.372Z,65.59
2017-08-31T18:51:26.437Z,65.85
2017-08-31T18:53:52.606Z,65.87
2017-08-31T18:56:18.638Z,65.83
2017-08-31T18:58:44.678Z,65.80
2017-08-31T19:01:10.786Z,65.81
2017-08-31T19:03:37.024Z,65.82
2017-08-31T19:06:03.352Z,65.86
2017-08-31T19:08:29.504Z,65.88
2017-08-31T19:10:55.521Z,65.64
2017-08-31T19:13:21.711Z,65.89
2017-08-31T19:15:47.877Z,65.88
2017-08-31T19:18:13.893Z,65.89
2017-08-31T19:20:39.975Z,65.91
2017-08-31T19:23:06.140Z,65.90
2017-08-31T19:25:32.169Z,65.81
2017-08-31T19:27:58.394Z,65.84
2017-08-31T19:30:24.548Z,66.02
2017-08-31T19:32:50.627Z,65.99
2017-08-31T19:35:16.878Z,65.99
2017-08-31T19:37:42.978Z,65.95
2017-08-31T19:40:09.092Z,65.92
2017-08-31T19:42:35.163Z,65.89
2017-08-31T19:45:01.244Z,65.91
2017-08-31T19:47:27.262Z,65.88
2017-08-31T19:49:53.480Z,65.88
2017-08-31T19:52:19.614Z,65.88
2017-08-31T19:54:45.619Z,65.86
2017-08-31T19:57:11.739Z,65.90
2017-08-31T19:59:37.775Z,65.90
2017-08-31T20:02:03.829Z,65.87
2017-08-31T20:04:29.867Z,65.88
2017-08-31T20:06:56.085Z,65.87
2017-08-31T20:09:22.857Z,65.84
2017-08-31T20:11:48.860Z,65.85
2017-08-31T20:14:15.129Z,65.74
2017-08-31T20:16:41.979Z,65.68
2017-08-31T20:19:08.056Z,65.65
2017-08-31T20:21:34.110Z,65.69
2017-08-31T20:24:00.331Z,65.64
2017-08-31T20:26:26.579Z,65.72
2017-08-31T20:28:52.749Z,65.72
2017-08-31T20:31:19.193Z,65.73
2017-08-31T20:33:45.417Z,65.79
2017-08-31T20:36:11.489Z,65.70
2017-08-31T20:38:38.164Z,65.72
2017-08-31T20:41:04.397Z,65.77
2017-08-31T20:43:30.515Z,65.73
2017-08-31T20:45:56.735Z,65.69
2017-08-31T20:48:22.817Z,65.78
2017-08-31T20:50:49.456Z,65.79
2017-08-31T20:53:15.554Z,65.78
2017-08-31T20:55:41.698Z,65.81
2017-08-31T20:58:07.755Z,65.85
2017-08-31T21:00:33.795Z,65.85
2017-08-31T21:02:59.871Z,65.82
2017-08-31T21:05:26.016Z,65.87
2017-08-31T21:07:52.160Z,65.88
2017-08-31T21:10:18.231Z,65.90
2017-08-31T21:12:44.345Z,65.90
2017-08-31T21:15:10.507Z,65.89
2017-08-31T21:17:36.865Z,65.93
2017-08-31T21:20:02.947Z,65.92
2017-08-31T21:22:29.058Z,65.94
2017-08-31T21:24:55.091Z,65.92
2017-08-31T21:27:21.166Z,65.94
2017-08-31T21:29:47.194Z,65.88
2017-08-31T21:32:13.304Z,65.85
2017-08-31T21:34:39.476Z,65.95
2017-08-31T21:37:05.696Z,65.90
2017-08-31T21:39:31.733Z,65.77
2017-08-31T21:41:57.926Z,65.71
2017-08-31T21:44:24.064Z,65.67
2017-08-31T21:46:50.115Z,65.60
2017-08-31T21:49:16.242Z,65.61
2017-08-31T21:51:42.399Z,65.60
2017-08-31T21:54:08.409Z,65.60
2017-08-31T21:56:35.381Z,65.57
2017-08-31T21:59:01.405Z,65.54
2017-08-31T22:01:27.429Z,65.56
2017-08-31T22:03:53.674Z,65.56
2017-08-31T22:06:19.691Z,65.57
2017-08-31T22:08:45.733Z,65.57
2017-08-31T22:11:11.975Z,65.58
2017-08-31T22:13:38.201Z,65.56
2017-08-31T22:16:04.230Z,65.53
2017-08-31T22:18:30.295Z,65.60
2017-08-31T22:20:56.465Z,65.51
2017-08-31T22:23:22.664Z,65.58
2017-08-31T22:25:48.710Z,65.53
2017-08-31T22:28:14.710Z,65.51
2017-08-31T22:30:40.854Z,65.51
2017-08-31T22:33:07.874Z,65.53
2017-08-31T22:35:33.934Z,65.53
2017-08-31T22:38:00.128Z,65.45
2017-08-31T22:40:26.172Z,65.52
2017-08-31T22:42:52.429Z,65.46
2017-08-31T22:45:18.480Z,65.52
2017-08-31T22:47:44.803Z,65.43
2017-08-31T22:50:10.850Z,65.53
2017-08-31T22:52:37.012Z,65.51
2017-08-31T22:55:15.419Z,65.50
2017-08-31T22:57:53.883Z,65.48
2017-08-31T23:00:19.941Z,65.47
2017-08-31T23:02:46.005Z,65.47
2017-08-31T23:05:12.143Z,65.49
2017-08-31T23:07:38.381Z,65.41
2017-08-31T23:10:04.652Z,65.45
2017-08-31T23:12:30.904Z,65.44
2017-08-31T23:14:57.233Z,65.47
2017-08-31T23:17:23.383Z,65.46
2017-08-31T23:19:49.388Z,65.36
2017-08-31T23:22:15.512Z,65.37
2017-08-31T23:24:41.573Z,65.38
2017-08-31T23:27:07.693Z,65.38
2017-08-31T23:29:33.958Z,65.42
2017-08-31T23:32:00.008Z,65.41
2017-08-31T23:34:26.112Z,65.43
2017-08-31T23:36:53.059Z,65.41
2017-08-31T23:39:19.105Z,65.40
2017-08-31T23:41:45.137Z,65.39
2017-08-31T23:44:11.253Z,65.43
2017-08-31T23:46:37.285Z,65.40
2017-08-31T23:49:04.302Z,65.38
2017-08-31T23:51:30.523Z,65.37
2017-08-31T23:53:56.511Z,65.34
2017-08-31T23:56:22.657Z,65.35
2017-08-31T23:58:48.733Z,65.31
